sensor_id;sensor_type;location;lat;lon;timestamp;temperature;humidity
9925;DHT22;5001;51.674;7.868;2023-04-25T00:02:24;7.20;1.00
9925;DHT22;5001;51.674;7.868;2023-04-25T00:04:51;7.10;1.00
9925;DHT22;5001;51.674;7.868;2023-04-25T00:07:19;6.90;1.00
9925;DHT22;5001;51.674;7.868;2023-04-25T00:09:46;7.00;1.00
9925;DHT22;5001;51.674;7.868;2023-04-25T00:12:13;7.20;1.00
9925;DHT22;5001;51.674;7.868;2023-04-25T00:14:40;7.30;1.00
9925;DHT22;5001;51.674;7.868;2023-04-25T00:17:07;7.20;1.00
9925;DHT22;5001;51.674;7.868;2023-04-25T00:19:34;7.10;1.00
9925;DHT22;5001;51.674;7.868;2023-04-25T00:22:02;7.10;1.00
9925;DHT22;5001;51.674;7.868;2023-04-25T00:24:29;7.10;1.00
9925;DHT22;5001;51.674;7.868;2023-04-25T00:26:56;7.10;1.00
9925;DHT22;5001;51.674;7.868;2023-04-25T00:29:23;7.10;1.00
9925;DHT22;5001;51.674;7.868;2023-04-25T00:31:50;7.10;1.00
9925;DHT22;5001;51.674;7.868;2023-04-25T00:34:17;7.20;1.00
9925;DHT22;5001;51.674;7.868;2023-04-25T00:36:44;7.50;1.00
9925;DHT22;5001;51.674;7.868;2023-04-25T00:39:12;7.60;1.00
9925;DHT22;5001;51.674;7.868;2023-04-25T00:41:39;7.50;1.00
9925;DHT22;5001;51.674;7.868;2023-04-25T00:44:08;7.70;1.00
9925;DHT22;5001;51.674;7.868;2023-04-25T00:46:38;7.50;1.00
9925;DHT22;5001;51.674;7.868;2023-04-25T00:49:06;7.50;1.00
9925;DHT22;5001;51.674;7.868;2023-04-25T00:51:33;7.70;1.00
9925;DHT22;5001;51.674;7.868;2023-04-25T00:54:01;7.60;1.00
9925;DHT22;5001;51.674;7.868;2023-04-25T00:56:28;7.60;1.00
9925;DHT22;5001;51.674;7.868;2023-04-25T00:58:56;7.60;1.00
9925;DHT22;5001;51.674;7.868;2023-04-25T01:01:23;7.60;1.00
9925;DHT22;5001;51.674;7.868;2023-04-25T01:03:51;8.00;1.00
9925;DHT22;5001;51.674;7.868;2023-04-25T01:06:19;8.20;1.00
9925;DHT22;5001;51.674;7.868;2023-04-25T01:08:46;8.70;1.00
9925;DHT22;5001;51.674;7.868;2023-04-25T01:11:13;8.60;1.00
9925;DHT22;5001;51.674;7.868;2023-04-25T01:13:40;8.50;1.00
9925;DHT22;5001;51.674;7.868;2023-04-25T01:16:07;8.20;1.00
9925;DHT22;5001;51.674;7.868;2023-04-25T01:18:34;8.10;1.00
9925;DHT22;5001;51.674;7.868;2023-04-25T01:21:07;8.00;1.00
9925;DHT22;5001;51.674;7.868;2023-04-25T01:23:36;8.30;1.00
9925;DHT22;5001;51.674;7.868;2023-04-25T01:26:05;8.20;1.00
9925;DHT22;5001;51.674;7.868;2023-04-25T01:28:33;8.20;1.00
9925;DHT22;5001;51.674;7.868;2023-04-25T01:31:01;8.10;1.00
9925;DHT22;5001;51.674;7.868;2023-04-25T01:33:29;8.00;1.00
9925;DHT22;5001;51.674;7.868;2023-04-25T01:35:56;8.20;1.00
9925;DHT22;5001;51.674;7.868;2023-04-25T01:38:23;8.00;1.00
9925;DHT22;5001;51.674;7.868;2023-04-25T01:40:51;7.90;1.00
9925;DHT22;5001;51.674;7.868;2023-04-25T01:43:19;8.10;1.00
9925;DHT22;5001;51.674;7.868;2023-04-25T01:45:46;8.10;1.00
9925;DHT22;5001;51.674;7.868;2023-04-25T01:48:14;8.30;1.00
9925;DHT22;5001;51.674;7.868;2023-04-25T01:50:43;8.60;1.00
9925;DHT22;5001;51.674;7.868;2023-04-25T01:53:13;8.40;1.00
9925;DHT22;5001;51.674;7.868;2023-04-25T01:55:42;8.50;1.00
9925;DHT22;5001;51.674;7.868;2023-04-25T01:58:12;8.40;1.00
9925;DHT22;5001;51.674;7.868;2023-04-25T02:01:09;8.00;1.00
9925;DHT22;5001;51.674;7.868;2023-04-25T02:03:43;8.30;1.00
9925;DHT22;5001;51.674;7.868;2023-04-25T02:06:19;8.70;1.00
9925;DHT22;5001;51.674;7.868;2023-04-25T02:08:48;8.40;1.00
9925;DHT22;5001;51.674;7.868;2023-04-25T02:11:15;8.10;1.00
9925;DHT22;5001;51.674;7.868;2023-04-25T02:13:51;8.00;1.00
9925;DHT22;5001;51.674;7.868;2023-04-25T02:16:38;8.20;1.00
9925;DHT22;5001;51.674;7.868;2023-04-25T02:19:06;8.10;1.00
9925;DHT22;5001;51.674;7.868;2023-04-25T02:21:33;8.00;1.00
9925;DHT22;5001;51.674;7.868;2023-04-25T02:24:03;8.00;1.00
9925;DHT22;5001;51.674;7.868;2023-04-25T02:26:30;7.80;1.00
9925;DHT22;5001;51.674;7.868;2023-04-25T02:28:57;7.90;1.00
9925;DHT22;5001;51.674;7.868;2023-04-25T02:31:24;8.10;1.00
9925;DHT22;5001;51.674;7.868;2023-04-25T02:33:53;8.00;1.00
9925;DHT22;5001;51.674;7.868;2023-04-25T02:36:22;7.90;1.00
9925;DHT22;5001;51.674;7.868;2023-04-25T02:38:49;7.70;1.00
9925;DHT22;5001;51.674;7.868;2023-04-25T02:41:15;7.60;1.00
9925;DHT22;5001;51.674;7.868;2023-04-25T02:43:42;7.40;99.90
9925;DHT22;5001;51.674;7.868;2023-04-25T02:46:10;7.70;99.90
9925;DHT22;5001;51.674;7.868;2023-04-25T02:48:38;7.60;99.90
9925;DHT22;5001;51.674;7.868;2023-04-25T02:51:06;7.70;1.00
9925;DHT22;5001;51.674;7.868;2023-04-25T02:53:33;7.80;1.00
9925;DHT22;5001;51.674;7.868;2023-04-25T02:56:00;8.00;1.00
9925;DHT22;5001;51.674;7.868;2023-04-25T02:58:27;8.00;1.00
9925;DHT22;5001;51.674;7.868;2023-04-25T03:00:54;8.30;1.00
9925;DHT22;5001;51.674;7.868;2023-04-25T03:03:21;8.00;1.00
9925;DHT22;5001;51.674;7.868;2023-04-25T03:05:50;7.80;1.00
9925;DHT22;5001;51.674;7.868;2023-04-25T03:08:22;8.20;1.00
9925;DHT22;5001;51.674;7.868;2023-04-25T03:10:49;8.70;1.00
9925;DHT22;5001;51.674;7.868;2023-04-25T03:13:18;8.90;1.00
9925;DHT22;5001;51.674;7.868;2023-04-25T03:15:46;9.40;1.00
9925;DHT22;5001;51.674;7.868;2023-04-25T03:18:12;9.50;1.00
9925;DHT22;5001;51.674;7.868;2023-04-25T03:20:40;9.60;1.00
9925;DHT22;5001;51.674;7.868;2023-04-25T03:23:08;9.60;1.00
9925;DHT22;5001;51.674;7.868;2023-04-25T03:25:36;9.50;1.00
9925;DHT22;5001;51.674;7.868;2023-04-25T03:28:03;9.50;1.00
9925;DHT22;5001;51.674;7.868;2023-04-25T03:30:31;9.30;1.00
9925;DHT22;5001;51.674;7.868;2023-04-25T03:32:58;9.30;1.00
9925;DHT22;5001;51.674;7.868;2023-04-25T03:35:26;9.50;1.00
9925;DHT22;5001;51.674;7.868;2023-04-25T03:37:53;9.40;1.00
9925;DHT22;5001;51.674;7.868;2023-04-25T03:40:26;9.60;1.00
9925;DHT22;5001;51.674;7.868;2023-04-25T03:43:16;9.50;1.00
9925;DHT22;5001;51.674;7.868;2023-04-25T03:45:50;9.50;1.00
9925;DHT22;5001;51.674;7.868;2023-04-25T03:48:20;9.60;1.00
9925;DHT22;5001;51.674;7.868;2023-04-25T03:50:54;9.40;1.00
9925;DHT22;5001;51.674;7.868;2023-04-25T03:53:21;8.80;1.00
9925;DHT22;5001;51.674;7.868;2023-04-25T03:56:06;8.90;1.00
9925;DHT22;5001;51.674;7.868;2023-04-25T03:58:36;8.80;1.00
9925;DHT22;5001;51.674;7.868;2023-04-25T04:01:03;8.60;1.00
9925;DHT22;5001;51.674;7.868;2023-04-25T04:03:36;8.70;1.00
9925;DHT22;5001;51.674;7.868;2023-04-25T04:06:05;8.80;1.00
9925;DHT22;5001;51.674;7.868;2023-04-25T04:08:36;8.70;1.00
9925;DHT22;5001;51.674;7.868;2023-04-25T04:11:03;8.70;1.00
9925;DHT22;5001;51.674;7.868;2023-04-25T04:13:31;8.70;1.00
9925;DHT22;5001;51.674;7.868;2023-04-25T04:15:59;8.50;1.00
9925;DHT22;5001;51.674;7.868;2023-04-25T04:18:26;8.50;1.00
9925;DHT22;5001;51.674;7.868;2023-04-25T04:20:55;8.60;1.00
9925;DHT22;5001;51.674;7.868;2023-04-25T04:23:26;8.60;1.00
9925;DHT22;5001;51.674;7.868;2023-04-25T04:25:55;8.70;1.00
9925;DHT22;5001;51.674;7.868;2023-04-25T04:28:42;8.40;1.00
9925;DHT22;5001;51.674;7.868;2023-04-25T04:31:36;8.30;1.00
9925;DHT22;5001;51.674;7.868;2023-04-25T04:34:04;8.20;1.00
9925;DHT22;5001;51.674;7.868;2023-04-25T04:36:33;8.00;1.00
9925;DHT22;5001;51.674;7.868;2023-04-25T04:39:00;8.20;1.00
9925;DHT22;5001;51.674;7.868;2023-04-25T04:41:43;8.40;1.00
9925;DHT22;5001;51.674;7.868;2023-04-25T04:44:29;8.40;1.00
9925;DHT22;5001;51.674;7.868;2023-04-25T04:47:09;8.30;1.00
9925;DHT22;5001;51.674;7.868;2023-04-25T04:50:16;8.30;1.00
9925;DHT22;5001;51.674;7.868;2023-04-25T04:53:15;8.50;1.00
9925;DHT22;5001;51.674;7.868;2023-04-25T04:55:51;8.60;1.00
9925;DHT22;5001;51.674;7.868;2023-04-25T04:58:28;8.50;1.00
9925;DHT22;5001;51.674;7.868;2023-04-25T05:01:26;8.50;1.00
9925;DHT22;5001;51.674;7.868;2023-04-25T05:04:03;8.70;1.00
9925;DHT22;5001;51.674;7.868;2023-04-25T05:06:46;8.70;1.00
9925;DHT22;5001;51.674;7.868;2023-04-25T05:09:14;8.80;1.00
9925;DHT22;5001;51.674;7.868;2023-04-25T05:12:02;8.70;1.00
9925;DHT22;5001;51.674;7.868;2023-04-25T05:14:38;8.90;1.00
9925;DHT22;5001;51.674;7.868;2023-04-25T05:17:12;9.00;1.00
9925;DHT22;5001;51.674;7.868;2023-04-25T05:19:54;9.10;1.00
9925;DHT22;5001;51.674;7.868;2023-04-25T05:22:49;9.20;1.00
9925;DHT22;5001;51.674;7.868;2023-04-25T05:25:29;8.90;1.00
9925;DHT22;5001;51.674;7.868;2023-04-25T05:28:25;8.70;1.00
9925;DHT22;5001;51.674;7.868;2023-04-25T05:31:27;8.70;1.00
9925;DHT22;5001;51.674;7.868;2023-04-25T05:34:02;8.90;1.00
9925;DHT22;5001;51.674;7.868;2023-04-25T05:36:40;9.00;1.00
9925;DHT22;5001;51.674;7.868;2023-04-25T05:39:07;9.10;1.00
9925;DHT22;5001;51.674;7.868;2023-04-25T05:42:10;9.30;1.00
9925;DHT22;5001;51.674;7.868;2023-04-25T05:45:00;9.40;1.00
9925;DHT22;5001;51.674;7.868;2023-04-25T05:47:36;10.10;1.00
9925;DHT22;5001;51.674;7.868;2023-04-25T05:50:08;10.30;1.00
9925;DHT22;5001;51.674;7.868;2023-04-25T05:52:58;10.50;1.00
9925;DHT22;5001;51.674;7.868;2023-04-25T05:55:31;11.80;1.00
9925;DHT22;5001;51.674;7.868;2023-04-25T05:58:00;12.50;1.00
9925;DHT22;5001;51.674;7.868;2023-04-25T06:00:27;12.50;1.00
9925;DHT22;5001;51.674;7.868;2023-04-25T06:03:03;12.40;1.00
9925;DHT22;5001;51.674;7.868;2023-04-25T06:05:30;12.60;1.00
9925;DHT22;5001;51.674;7.868;2023-04-25T06:07:58;13.00;1.00
9925;DHT22;5001;51.674;7.868;2023-04-25T06:10:25;12.70;1.00
9925;DHT22;5001;51.674;7.868;2023-04-25T06:12:52;12.70;1.00
9925;DHT22;5001;51.674;7.868;2023-04-25T06:15:21;12.70;1.00
9925;DHT22;5001;51.674;7.868;2023-04-25T06:17:55;12.50;1.00
9925;DHT22;5001;51.674;7.868;2023-04-25T06:20:22;12.20;1.00
9925;DHT22;5001;51.674;7.868;2023-04-25T06:22:51;12.40;1.00
9925;DHT22;5001;51.674;7.868;2023-04-25T06:25:20;15.40;1.00
9925;DHT22;5001;51.674;7.868;2023-04-25T06:27:47;17.50;1.00
9925;DHT22;5001;51.674;7.868;2023-04-25T06:30:15;16.70;1.00
9925;DHT22;5001;51.674;7.868;2023-04-25T06:32:45;15.20;1.00
9925;DHT22;5001;51.674;7.868;2023-04-25T06:35:12;13.90;1.00
9925;DHT22;5001;51.674;7.868;2023-04-25T06:37:40;13.10;1.00
9925;DHT22;5001;51.674;7.868;2023-04-25T06:40:07;12.80;1.00
9925;DHT22;5001;51.674;7.868;2023-04-25T06:42:35;12.40;1.00
9925;DHT22;5001;51.674;7.868;2023-04-25T06:45:21;12.50;1.00
9925;DHT22;5001;51.674;7.868;2023-04-25T06:47:49;12.60;1.00
9925;DHT22;5001;51.674;7.868;2023-04-25T06:50:16;12.70;1.00
9925;DHT22;5001;51.674;7.868;2023-04-25T06:52:43;13.10;1.00
9925;DHT22;5001;51.674;7.868;2023-04-25T06:55:10;13.10;1.00
9925;DHT22;5001;51.674;7.868;2023-04-25T06:57:56;13.00;1.00
9925;DHT22;5001;51.674;7.868;2023-04-25T07:00:46;12.70;1.00
9925;DHT22;5001;51.674;7.868;2023-04-25T07:03:13;13.20;1.00
9925;DHT22;5001;51.674;7.868;2023-04-25T07:05:40;13.40;1.00
9925;DHT22;5001;51.674;7.868;2023-04-25T07:08:07;13.40;1.00
9925;DHT22;5001;51.674;7.868;2023-04-25T07:10:34;13.40;1.00
9925;DHT22;5001;51.674;7.868;2023-04-25T07:13:02;13.90;1.00
9925;DHT22;5001;51.674;7.868;2023-04-25T07:15:29;14.40;1.00
9925;DHT22;5001;51.674;7.868;2023-04-25T07:17:58;15.10;1.00
9925;DHT22;5001;51.674;7.868;2023-04-25T07:20:25;15.30;1.00
9925;DHT22;5001;51.674;7.868;2023-04-25T07:22:52;15.00;1.00
9925;DHT22;5001;51.674;7.868;2023-04-25T07:25:20;14.90;1.00
9925;DHT22;5001;51.674;7.868;2023-04-25T07:27:47;15.30;1.00
9925;DHT22;5001;51.674;7.868;2023-04-25T07:30:17;15.30;1.00
9925;DHT22;5001;51.674;7.868;2023-04-25T07:32:44;15.70;1.00
9925;DHT22;5001;51.674;7.868;2023-04-25T07:35:12;16.40;1.00
9925;DHT22;5001;51.674;7.868;2023-04-25T07:37:40;18.00;1.00
9925;DHT22;5001;51.674;7.868;2023-04-25T07:40:11;19.80;1.00
9925;DHT22;5001;51.674;7.868;2023-04-25T07:42:44;20.20;1.00
9925;DHT22;5001;51.674;7.868;2023-04-25T07:45:15;19.90;1.00
9925;DHT22;5001;51.674;7.868;2023-04-25T07:47:43;19.50;1.00
9925;DHT22;5001;51.674;7.868;2023-04-25T07:50:10;19.00;1.00
9925;DHT22;5001;51.674;7.868;2023-04-25T07:52:37;18.20;1.00
9925;DHT22;5001;51.674;7.868;2023-04-25T07:55:16;18.60;1.00
9925;DHT22;5001;51.674;7.868;2023-04-25T07:57:56;19.20;1.00
9925;DHT22;5001;51.674;7.868;2023-04-25T08:00:23;20.30;1.00
9925;DHT22;5001;51.674;7.868;2023-04-25T08:03:01;20.10;1.00
9925;DHT22;5001;51.674;7.868;2023-04-25T08:05:29;19.10;1.00
9925;DHT22;5001;51.674;7.868;2023-04-25T08:08:02;19.80;1.00
9925;DHT22;5001;51.674;7.868;2023-04-25T08:10:29;19.00;1.00
9925;DHT22;5001;51.674;7.868;2023-04-25T08:12:56;19.00;1.00
9925;DHT22;5001;51.674;7.868;2023-04-25T08:15:23;18.00;1.00
9925;DHT22;5001;51.674;7.868;2023-04-25T08:17:50;16.10;1.00
9925;DHT22;5001;51.674;7.868;2023-04-25T08:20:18;16.80;1.00
9925;DHT22;5001;51.674;7.868;2023-04-25T08:22:45;18.80;1.00
9925;DHT22;5001;51.674;7.868;2023-04-25T08:25:25;19.30;1.00
9925;DHT22;5001;51.674;7.868;2023-04-25T08:27:52;20.90;1.00
9925;DHT22;5001;51.674;7.868;2023-04-25T08:30:21;21.10;1.00
9925;DHT22;5001;51.674;7.868;2023-04-25T08:32:50;19.30;1.00
9925;DHT22;5001;51.674;7.868;2023-04-25T08:35:40;17.70;1.00
9925;DHT22;5001;51.674;7.868;2023-04-25T08:38:07;16.50;1.00
9925;DHT22;5001;51.674;7.868;2023-04-25T08:40:38;15.80;1.00
9925;DHT22;5001;51.674;7.868;2023-04-25T08:43:13;16.00;1.00
9925;DHT22;5001;51.674;7.868;2023-04-25T08:45:42;15.70;1.00
9925;DHT22;5001;51.674;7.868;2023-04-25T08:48:15;15.50;1.00
9925;DHT22;5001;51.674;7.868;2023-04-25T08:50:49;15.40;1.00
9925;DHT22;5001;51.674;7.868;2023-04-25T08:53:27;15.90;1.00
9925;DHT22;5001;51.674;7.868;2023-04-25T08:55:59;16.10;1.00
9925;DHT22;5001;51.674;7.868;2023-04-25T08:58:27;16.20;1.00
9925;DHT22;5001;51.674;7.868;2023-04-25T09:00:55;16.80;1.00
9925;DHT22;5001;51.674;7.868;2023-04-25T09:03:26;17.70;1.00
9925;DHT22;5001;51.674;7.868;2023-04-25T09:05:54;18.50;1.00
9925;DHT22;5001;51.674;7.868;2023-04-25T09:08:22;19.30;1.00
9925;DHT22;5001;51.674;7.868;2023-04-25T09:10:49;19.50;1.00
9925;DHT22;5001;51.674;7.868;2023-04-25T09:13:25;18.60;1.00
9925;DHT22;5001;51.674;7.868;2023-04-25T09:16:12;16.30;1.00
9925;DHT22;5001;51.674;7.868;2023-04-25T09:19:07;15.50;1.00
9925;DHT22;5001;51.674;7.868;2023-04-25T09:21:34;15.20;1.00
9925;DHT22;5001;51.674;7.868;2023-04-25T09:24:02;15.00;1.00
9925;DHT22;5001;51.674;7.868;2023-04-25T09:26:29;14.40;1.00
9925;DHT22;5001;51.674;7.868;2023-04-25T09:29:08;13.90;1.00
9925;DHT22;5001;51.674;7.868;2023-04-25T09:31:39;13.20;1.00
9925;DHT22;5001;51.674;7.868;2023-04-25T09:34:08;13.10;1.00
9925;DHT22;5001;51.674;7.868;2023-04-25T09:36:43;13.40;1.00
9925;DHT22;5001;51.674;7.868;2023-04-25T09:39:28;13.50;1.00
9925;DHT22;5001;51.674;7.868;2023-04-25T09:42:03;14.00;1.00
9925;DHT22;5001;51.674;7.868;2023-04-25T09:44:31;14.80;1.00
9925;DHT22;5001;51.674;7.868;2023-04-25T09:46:59;15.30;1.00
9925;DHT22;5001;51.674;7.868;2023-04-25T09:49:28;15.10;1.00
9925;DHT22;5001;51.674;7.868;2023-04-25T09:52:01;14.90;1.00
9925;DHT22;5001;51.674;7.868;2023-04-25T09:54:34;15.00;1.00
9925;DHT22;5001;51.674;7.868;2023-04-25T09:57:11;15.80;1.00
9925;DHT22;5001;51.674;7.868;2023-04-25T09:59:43;16.80;1.00
9925;DHT22;5001;51.674;7.868;2023-04-25T10:02:11;18.50;1.00
9925;DHT22;5001;51.674;7.868;2023-04-25T10:04:40;19.40;1.00
9925;DHT22;5001;51.674;7.868;2023-04-25T10:07:18;21.10;1.00
9925;DHT22;5001;51.674;7.868;2023-04-25T10:09:48;24.10;1.00
9925;DHT22;5001;51.674;7.868;2023-04-25T10:12:17;27.10;1.00
9925;DHT22;5001;51.674;7.868;2023-04-25T10:14:44;28.50;1.00
9925;DHT22;5001;51.674;7.868;2023-04-25T10:17:12;27.70;1.00
9925;DHT22;5001;51.674;7.868;2023-04-25T10:19:39;26.40;1.00
9925;DHT22;5001;51.674;7.868;2023-04-25T10:24:35;23.40;1.00
9925;DHT22;5001;51.674;7.868;2023-04-25T10:27:04;21.20;1.00
9925;DHT22;5001;51.674;7.868;2023-04-25T10:29:31;19.90;1.00
9925;DHT22;5001;51.674;7.868;2023-04-25T10:31:58;18.80;1.00
9925;DHT22;5001;51.674;7.868;2023-04-25T10:34:40;17.00;1.00
9925;DHT22;5001;51.674;7.868;2023-04-25T10:37:10;15.90;1.00
9925;DHT22;5001;51.674;7.868;2023-04-25T10:39:39;15.70;1.00
9925;DHT22;5001;51.674;7.868;2023-04-25T10:42:07;15.10;1.00
9925;DHT22;5001;51.674;7.868;2023-04-25T10:44:37;15.20;1.00
9925;DHT22;5001;51.674;7.868;2023-04-25T10:47:06;15.20;1.00
9925;DHT22;5001;51.674;7.868;2023-04-25T10:49:36;15.10;1.00
9925;DHT22;5001;51.674;7.868;2023-04-25T10:52:27;15.20;1.00
9925;DHT22;5001;51.674;7.868;2023-04-25T10:54:58;15.60;1.00
9925;DHT22;5001;51.674;7.868;2023-04-25T10:57:39;15.50;1.00
9925;DHT22;5001;51.674;7.868;2023-04-25T11:00:17;15.10;1.00
9925;DHT22;5001;51.674;7.868;2023-04-25T11:02:46;15.00;1.00
9925;DHT22;5001;51.674;7.868;2023-04-25T11:05:32;15.00;1.00
9925;DHT22;5001;51.674;7.868;2023-04-25T11:08:11;14.80;1.00
9925;DHT22;5001;51.674;7.868;2023-04-25T11:10:41;15.00;1.00
9925;DHT22;5001;51.674;7.868;2023-04-25T11:13:08;15.10;1.00
9925;DHT22;5001;51.674;7.868;2023-04-25T11:15:35;15.60;1.00
9925;DHT22;5001;51.674;7.868;2023-04-25T11:18:03;15.90;1.00
9925;DHT22;5001;51.674;7.868;2023-04-25T11:20:30;16.50;1.00
9925;DHT22;5001;51.674;7.868;2023-04-25T11:22:58;16.90;1.00
9925;DHT22;5001;51.674;7.868;2023-04-25T11:25:33;17.50;1.00
9925;DHT22;5001;51.674;7.868;2023-04-25T11:28:03;18.00;1.00
9925;DHT22;5001;51.674;7.868;2023-04-25T11:30:30;17.80;1.00
9925;DHT22;5001;51.674;7.868;2023-04-25T11:32:58;18.30;1.00
9925;DHT22;5001;51.674;7.868;2023-04-25T11:35:25;18.10;1.00
9925;DHT22;5001;51.674;7.868;2023-04-25T11:37:52;18.10;1.00
9925;DHT22;5001;51.674;7.868;2023-04-25T11:40:19;18.30;1.00
9925;DHT22;5001;51.674;7.868;2023-04-25T11:42:47;18.70;1.00
9925;DHT22;5001;51.674;7.868;2023-04-25T11:45:14;20.00;1.00
9925;DHT22;5001;51.674;7.868;2023-04-25T11:47:41;19.80;1.00
9925;DHT22;5001;51.674;7.868;2023-04-25T11:50:09;19.70;1.00
9925;DHT22;5001;51.674;7.868;2023-04-25T11:52:47;20.50;1.00
9925;DHT22;5001;51.674;7.868;2023-04-25T11:55:16;20.80;1.00
9925;DHT22;5001;51.674;7.868;2023-04-25T11:57:47;21.20;1.00
9925;DHT22;5001;51.674;7.868;2023-04-25T12:00:18;18.90;1.00
9925;DHT22;5001;51.674;7.868;2023-04-25T12:02:50;18.40;1.00
9925;DHT22;5001;51.674;7.868;2023-04-25T12:05:18;19.70;1.00
9925;DHT22;5001;51.674;7.868;2023-04-25T12:08:19;20.20;1.00
9925;DHT22;5001;51.674;7.868;2023-04-25T12:10:46;20.00;1.00
9925;DHT22;5001;51.674;7.868;2023-04-25T12:13:21;19.90;1.00
9925;DHT22;5001;51.674;7.868;2023-04-25T12:15:49;19.20;1.00
9925;DHT22;5001;51.674;7.868;2023-04-25T12:18:35;19.00;1.00
9925;DHT22;5001;51.674;7.868;2023-04-25T12:21:04;19.00;1.00
9925;DHT22;5001;51.674;7.868;2023-04-25T12:23:31;19.00;1.00
9925;DHT22;5001;51.674;7.868;2023-04-25T12:25:58;18.30;1.00
9925;DHT22;5001;51.674;7.868;2023-04-25T12:28:25;16.30;1.00
9925;DHT22;5001;51.674;7.868;2023-04-25T12:31:03;16.60;1.00
9925;DHT22;5001;51.674;7.868;2023-04-25T12:33:33;16.40;1.00
9925;DHT22;5001;51.674;7.868;2023-04-25T12:36:02;16.20;1.00
9925;DHT22;5001;51.674;7.868;2023-04-25T12:38:37;15.50;1.00
9925;DHT22;5001;51.674;7.868;2023-04-25T12:41:05;15.00;1.00
9925;DHT22;5001;51.674;7.868;2023-04-25T12:43:33;13.90;1.00
9925;DHT22;5001;51.674;7.868;2023-04-25T12:46:00;13.70;1.00
9925;DHT22;5001;51.674;7.868;2023-04-25T12:48:27;13.50;1.00
9925;DHT22;5001;51.674;7.868;2023-04-25T12:50:54;13.20;1.00
9925;DHT22;5001;51.674;7.868;2023-04-25T12:53:22;12.90;1.00
9925;DHT22;5001;51.674;7.868;2023-04-25T12:55:50;13.00;1.00
9925;DHT22;5001;51.674;7.868;2023-04-25T12:58:18;13.40;1.00
9925;DHT22;5001;51.674;7.868;2023-04-25T13:00:49;13.40;1.00
9925;DHT22;5001;51.674;7.868;2023-04-25T13:03:16;13.40;1.00
9925;DHT22;5001;51.674;7.868;2023-04-25T13:05:45;13.70;1.00
9925;DHT22;5001;51.674;7.868;2023-04-25T13:08:12;13.80;1.00
9925;DHT22;5001;51.674;7.868;2023-04-25T13:10:39;14.00;1.00
9925;DHT22;5001;51.674;7.868;2023-04-25T13:13:06;14.00;1.00
9925;DHT22;5001;51.674;7.868;2023-04-25T13:15:33;13.60;1.00
9925;DHT22;5001;51.674;7.868;2023-04-25T13:18:00;13.50;1.00
9925;DHT22;5001;51.674;7.868;2023-04-25T13:20:28;13.30;1.00
9925;DHT22;5001;51.674;7.868;2023-04-25T13:22:55;13.70;1.00
9925;DHT22;5001;51.674;7.868;2023-04-25T13:25:22;13.90;1.00
9925;DHT22;5001;51.674;7.868;2023-04-25T13:27:49;14.10;1.00
9925;DHT22;5001;51.674;7.868;2023-04-25T13:30:16;14.40;1.00
9925;DHT22;5001;51.674;7.868;2023-04-25T13:32:43;14.50;1.00
9925;DHT22;5001;51.674;7.868;2023-04-25T13:35:12;14.70;1.00
9925;DHT22;5001;51.674;7.868;2023-04-25T13:37:40;15.40;1.00
9925;DHT22;5001;51.674;7.868;2023-04-25T13:40:09;15.70;1.00
9925;DHT22;5001;51.674;7.868;2023-04-25T13:42:37;14.90;1.00
9925;DHT22;5001;51.674;7.868;2023-04-25T13:45:05;15.40;1.00
9925;DHT22;5001;51.674;7.868;2023-04-25T13:47:32;15.60;1.00
9925;DHT22;5001;51.674;7.868;2023-04-25T13:50:00;15.60;1.00
9925;DHT22;5001;51.674;7.868;2023-04-25T13:52:29;15.10;1.00
9925;DHT22;5001;51.674;7.868;2023-04-25T13:54:56;14.80;1.00
9925;DHT22;5001;51.674;7.868;2023-04-25T13:57:23;14.50;1.00
9925;DHT22;5001;51.674;7.868;2023-04-25T13:59:51;14.40;1.00
9925;DHT22;5001;51.674;7.868;2023-04-25T14:02:18;14.40;1.00
9925;DHT22;5001;51.674;7.868;2023-04-25T14:04:45;14.20;1.00
9925;DHT22;5001;51.674;7.868;2023-04-25T14:07:13;14.20;1.00
9925;DHT22;5001;51.674;7.868;2023-04-25T14:09:42;13.90;1.00
9925;DHT22;5001;51.674;7.868;2023-04-25T14:12:09;13.50;1.00
9925;DHT22;5001;51.674;7.868;2023-04-25T14:14:37;13.70;1.00
9925;DHT22;5001;51.674;7.868;2023-04-25T14:17:04;14.20;1.00
9925;DHT22;5001;51.674;7.868;2023-04-25T14:19:31;14.60;1.00
9925;DHT22;5001;51.674;7.868;2023-04-25T14:21:58;14.80;1.00
9925;DHT22;5001;51.674;7.868;2023-04-25T14:24:25;14.90;1.00
9925;DHT22;5001;51.674;7.868;2023-04-25T14:26:53;15.00;1.00
9925;DHT22;5001;51.674;7.868;2023-04-25T14:29:19;15.00;1.00
9925;DHT22;5001;51.674;7.868;2023-04-25T14:31:47;15.00;1.00
9925;DHT22;5001;51.674;7.868;2023-04-25T14:34:14;15.00;1.00
9925;DHT22;5001;51.674;7.868;2023-04-25T14:36:41;15.40;1.00
9925;DHT22;5001;51.674;7.868;2023-04-25T14:39:09;15.50;1.00
9925;DHT22;5001;51.674;7.868;2023-04-25T14:41:36;15.60;1.00
9925;DHT22;5001;51.674;7.868;2023-04-25T14:44:04;15.50;1.00
9925;DHT22;5001;51.674;7.868;2023-04-25T14:46:31;14.80;1.00
9925;DHT22;5001;51.674;7.868;2023-04-25T14:48:58;13.80;1.00
9925;DHT22;5001;51.674;7.868;2023-04-25T14:51:25;13.40;1.00
9925;DHT22;5001;51.674;7.868;2023-04-25T14:53:53;13.10;1.00
9925;DHT22;5001;51.674;7.868;2023-04-25T14:56:20;13.10;1.00
9925;DHT22;5001;51.674;7.868;2023-04-25T14:58:47;12.60;1.00
9925;DHT22;5001;51.674;7.868;2023-04-25T15:01:14;11.90;1.00
9925;DHT22;5001;51.674;7.868;2023-04-25T15:03:41;11.50;1.00
9925;DHT22;5001;51.674;7.868;2023-04-25T15:06:09;11.30;1.00
9925;DHT22;5001;51.674;7.868;2023-04-25T15:08:36;11.20;1.00
9925;DHT22;5001;51.674;7.868;2023-04-25T15:11:03;11.00;1.00
9925;DHT22;5001;51.674;7.868;2023-04-25T15:13:31;11.40;1.00
9925;DHT22;5001;51.674;7.868;2023-04-25T15:15:58;12.00;1.00
9925;DHT22;5001;51.674;7.868;2023-04-25T15:18:25;11.70;1.00
9925;DHT22;5001;51.674;7.868;2023-04-25T15:20:53;12.20;1.00
9925;DHT22;5001;51.674;7.868;2023-04-25T15:23:20;12.70;1.00
9925;DHT22;5001;51.674;7.868;2023-04-25T15:25:50;12.60;1.00
9925;DHT22;5001;51.674;7.868;2023-04-25T15:28:17;12.70;1.00
9925;DHT22;5001;51.674;7.868;2023-04-25T15:30:44;12.30;1.00
9925;DHT22;5001;51.674;7.868;2023-04-25T15:33:12;12.70;1.00
9925;DHT22;5001;51.674;7.868;2023-04-25T15:35:40;12.60;1.00
9925;DHT22;5001;51.674;7.868;2023-04-25T15:38:07;12.90;1.00
9925;DHT22;5001;51.674;7.868;2023-04-25T15:40:35;12.50;1.00
9925;DHT22;5001;51.674;7.868;2023-04-25T15:43:02;12.60;1.00
9925;DHT22;5001;51.674;7.868;2023-04-25T15:45:29;13.30;1.00
9925;DHT22;5001;51.674;7.868;2023-04-25T15:47:58;13.50;1.00
9925;DHT22;5001;51.674;7.868;2023-04-25T15:50:25;12.60;1.00
9925;DHT22;5001;51.674;7.868;2023-04-25T15:52:52;12.80;1.00
9925;DHT22;5001;51.674;7.868;2023-04-25T15:55:19;13.10;1.00
9925;DHT22;5001;51.674;7.868;2023-04-25T15:57:48;13.40;1.00
9925;DHT22;5001;51.674;7.868;2023-04-25T16:00:17;13.20;1.00
9925;DHT22;5001;51.674;7.868;2023-04-25T16:02:45;13.00;1.00
9925;DHT22;5001;51.674;7.868;2023-04-25T16:05:14;13.30;1.00
9925;DHT22;5001;51.674;7.868;2023-04-25T16:07:43;13.20;1.00
9925;DHT22;5001;51.674;7.868;2023-04-25T16:10:11;13.40;1.00
9925;DHT22;5001;51.674;7.868;2023-04-25T16:12:39;13.20;1.00
9925;DHT22;5001;51.674;7.868;2023-04-25T16:15:06;12.90;1.00
9925;DHT22;5001;51.674;7.868;2023-04-25T16:17:34;12.70;1.00
9925;DHT22;5001;51.674;7.868;2023-04-25T16:20:01;12.40;1.00
9925;DHT22;5001;51.674;7.868;2023-04-25T16:22:32;12.10;1.00
9925;DHT22;5001;51.674;7.868;2023-04-25T16:24:59;12.00;1.00
9925;DHT22;5001;51.674;7.868;2023-04-25T16:27:26;12.10;1.00
9925;DHT22;5001;51.674;7.868;2023-04-25T16:29:53;12.00;1.00
9925;DHT22;5001;51.674;7.868;2023-04-25T16:32:20;12.10;1.00
9925;DHT22;5001;51.674;7.868;2023-04-25T16:34:47;12.10;1.00
9925;DHT22;5001;51.674;7.868;2023-04-25T16:37:15;12.10;1.00
9925;DHT22;5001;51.674;7.868;2023-04-25T16:39:42;12.00;1.00
9925;DHT22;5001;51.674;7.868;2023-04-25T16:42:09;12.10;1.00
9925;DHT22;5001;51.674;7.868;2023-04-25T16:44:36;12.10;1.00
9925;DHT22;5001;51.674;7.868;2023-04-25T16:47:03;12.10;1.00
9925;DHT22;5001;51.674;7.868;2023-04-25T16:49:31;12.20;1.00